Time;durP1;ratioP1;P1;durP2;ratioP2;P2;SDS_P1;SDS_P2;PMS_P1;PMS_P2;Temp;Humidity;BMP_temperature;BMP_pressure;BME280_temperature;BME280_humidity;BME280_pressure;Samples;Min_cycle;Max_cycle;Signal;HPM_P1;HPM_P2
2021/12/23 00:00:58;;;;;;;14.98;8.35;;;;;;;-6.31;60.09;101664.05;1821633;78;20901;-77
2021/12/23 00:03:25;;;;;;;13.53;7.70;;;;;;;-6.32;60.40;101663.99;1821679;78;20935;-77
2021/12/23 00:05:55;;;;;;;13.88;7.80;;;;;;;-6.31;60.59;101667.87;1821584;78;20903;-78
2021/12/23 00:08:23;;;;;;;26.12;8.30;;;;;;;-6.32;60.74;101667.41;1821580;78;21104;-76
2021/12/23 00:10:50;;;;;;;13.40;6.85;;;;;;;-6.33;60.84;101668.66;1821826;78;20884;-77
2021/12/23 00:13:17;;;;;;;14.87;6.87;;;;;;;-6.34;61.00;101667.77;1821812;78;21329;-77
2021/12/23 00:23:56;;;;;;;17.35;8.23;;;;;;;-6.43;61.27;101670.51;1821520;78;20970;-77
2021/12/23 00:26:23;;;;;;;12.82;7.83;;;;;;;-6.45;61.47;101670.45;1821744;78;20868;-77
2021/12/23 00:28:51;;;;;;;14.10;7.72;;;;;;;-6.46;61.75;101668.74;1821402;78;20890;-79
2021/12/23 00:31:19;;;;;;;13.20;7.58;;;;;;;-6.45;61.90;101669.18;1821633;78;20894;-78
2021/12/23 00:33:46;;;;;;;12.07;7.30;;;;;;;-6.42;62.00;101672.22;1821786;78;21784;-78
2021/12/23 00:36:13;;;;;;;11.70;6.85;;;;;;;-6.41;62.01;101672.27;1825110;78;20927;-78
2021/12/23 00:38:49;;;;;;;12.43;6.87;;;;;;;-6.42;62.02;101670.94;1825000;78;20883;-79
2021/12/23 00:41:10;;;;;;;11.30;6.78;;;;;;;-6.42;62.13;101677.33;1823942;78;21021;-79
2021/12/23 00:43:38;;;;;;;8.53;6.53;;;;;;;-6.40;62.16;101679.50;1824908;78;20871;-78
2021/12/23 00:46:07;;;;;;;8.73;6.08;;;;;;;-6.36;62.20;101676.22;1824895;78;20859;-79
2021/12/23 00:48:39;;;;;;;12.60;7.05;;;;;;;-6.31;62.15;101679.77;1824952;78;20970;-79
2021/12/23 00:51:07;;;;;;;10.98;6.40;;;;;;;-6.30;62.18;101678.94;1825388;78;20832;-79
2021/12/23 00:53:40;;;;;;;9.58;5.35;;;;;;;-6.30;62.19;101686.59;1824952;78;20919;-79
2021/12/23 00:56:02;;;;;;;12.65;6.03;;;;;;;-6.32;62.19;101680.16;1823668;78;20900;-78
2021/12/23 00:58:29;;;;;;;11.03;6.10;;;;;;;-6.30;62.28;101682.77;1824908;78;21353;-81
2021/12/23 01:00:59;;;;;;;8.75;5.90;;;;;;;-6.29;62.19;101676.44;1825181;78;20863;-81
2021/12/23 01:03:25;;;;;;;10.50;6.80;;;;;;;-6.29;62.09;101672.61;1825239;78;20919;-79
2021/12/23 01:05:52;;;;;;;13.05;7.58;;;;;;;-6.28;62.09;101672.19;1825754;78;21068;-80
2021/12/23 01:08:20;;;;;;;9.63;5.87;;;;;;;-6.30;62.17;101668.73;1824984;78;21021;-78
2021/12/23 01:10:50;;;;;;;12.30;6.90;;;;;;;-6.33;62.13;101670.80;1824915;78;21053;-80
2021/12/23 01:13:19;;;;;;;14.00;7.30;;;;;;;-6.33;62.18;101672.07;1824805;78;20883;-79
2021/12/23 01:18:42;;;;;;;6.47;4.50;;;;;;;-6.33;62.10;101668.24;1824853;78;21377;-72
2021/12/23 01:21:16;;;;;;;8.65;5.25;;;;;;;-6.33;62.00;101672.48;1825161;78;20926;-74
2021/12/23 01:23:52;;;;;;;6.53;4.45;;;;;;;-6.39;61.99;101667.22;1824990;78;21792;-76
2021/12/23 01:26:22;;;;;;;11.48;5.33;;;;;;;-6.41;62.09;101661.20;1825388;78;20911;-74
2021/12/23 01:28:55;;;;;;;6.25;4.45;;;;;;;-6.43;61.93;101656.05;1824863;78;21397;-75
2021/12/23 01:31:25;;;;;;;5.90;3.93;;;;;;;-6.44;61.76;101660.72;1825319;78;20919;-75
2021/12/23 01:33:52;;;;;;;4.78;3.05;;;;;;;-6.49;61.51;101660.60;1824768;78;21384;-76
2021/12/23 01:36:19;;;;;;;6.22;3.33;;;;;;;-6.61;61.13;101657.70;1821456;78;21127;-74
2021/12/23 01:38:46;;;;;;;6.30;4.05;;;;;;;-6.76;61.00;101662.00;1821410;78;20875;-75
2021/12/23 01:41:14;;;;;;;4.53;3.67;;;;;;;-6.90;60.98;101664.14;1821422;78;21461;-75
2021/12/23 01:43:41;;;;;;;5.78;2.87;;;;;;;-7.04;60.27;101658.22;1821445;78;21061;-75
2021/12/23 01:46:08;;;;;;;3.50;2.83;;;;;;;-7.26;60.15;101654.18;1821560;78;20848;-75
2021/12/23 01:48:36;;;;;;;5.30;3.50;;;;;;;-7.45;60.00;101654.02;1821298;78;21455;-75
2021/12/23 01:51:03;;;;;;;6.22;3.25;;;;;;;-7.64;60.39;101663.66;1821319;78;20919;-75
2021/12/23 01:53:30;;;;;;;5.05;3.20;;;;;;;-7.71;60.35;101662.60;1821360;78;20888;-74
2021/12/23 01:55:58;;;;;;;4.17;2.70;;;;;;;-7.76;60.35;101659.05;1821203;78;20919;-75
2021/12/23 01:58:25;;;;;;;5.08;4.03;;;;;;;-7.78;59.82;101659.80;1816394;78;20982;-76
2021/12/23 02:00:52;;;;;;;3.37;2.55;;;;;;;-7.89;59.74;101661.14;1821330;78;21138;-74
2021/12/23 02:03:19;;;;;;;4.87;3.08;;;;;;;-7.97;59.73;101664.30;1821905;78;21455;-74
2021/12/23 02:05:47;;;;;;;4.65;3.45;;;;;;;-8.01;59.66;101671.38;1822144;78;20915;-74
2021/12/23 02:08:14;;;;;;;5.10;3.83;;;;;;;-8.06;59.60;101674.61;1823506;78;21567;-74
2021/12/23 02:10:43;;;;;;;6.03;3.92;;;;;;;-8.12;59.43;101671.02;1825088;78;20943;-72
2021/12/23 02:13:11;;;;;;;3.67;3.35;;;;;;;-8.21;59.52;101672.41;1822731;78;21154;-74
2021/12/23 02:15:39;;;;;;;4.60;3.98;;;;;;;-8.33;59.59;101671.59;1821353;78;20880;-75
2021/12/23 02:18:07;;;;;;;6.22;3.25;;;;;;;-8.38;59.73;101674.36;1821353;78;20872;-74
2021/12/23 02:20:34;;;;;;;4.60;3.02;;;;;;;-8.46;59.72;101675.84;1821420;78;20970;-75
2021/12/23 02:23:04;;;;;;;6.95;2.90;;;;;;;-8.58;59.73;101672.44;1821383;78;20950;-75
2021/12/23 02:25:31;;;;;;;4.15;3.77;;;;;;;-8.73;60.25;101677.01;1821446;78;21041;-75
2021/12/23 02:28:03;;;;;;;4.12;3.22;;;;;;;-8.79;60.56;101675.09;1821316;78;20856;-74
2021/12/23 02:30:28;;;;;;;4.40;3.33;;;;;;;-8.76;60.78;101678.63;1820785;78;21373;-75
2021/12/23 02:32:56;;;;;;;4.28;3.60;;;;;;;-8.76;60.73;101682.44;1821224;78;20998;-74
2021/12/23 02:35:25;;;;;;;6.58;2.65;;;;;;;-8.78;60.97;101680.25;1823056;78;20888;-77
2021/12/23 02:37:52;;;;;;;5.10;3.35;;;;;;;-8.78;61.00;101691.69;1824843;78;21120;-76
2021/12/23 02:40:38;;;;;;;7.33;3.60;;;;;;;-8.79;61.08;101696.70;1824791;78;20895;-76
2021/12/23 02:43:17;;;;;;;7.37;4.35;;;;;;;-8.75;61.20;101702.36;1824994;78;20891;-76
2021/12/23 02:45:46;;;;;;;7.00;4.37;;;;;;;-8.71;60.90;101702.94;1824783;78;21420;-76
2021/12/23 02:48:17;;;;;;;11.10;5.78;;;;;;;-8.75;60.85;101694.73;1824723;77;21463;-76
2021/12/23 02:50:47;;;;;;;9.53;4.95;;;;;;;-8.78;60.96;101699.31;1823572;78;21167;-75
2021/12/23 02:53:14;;;;;;;4.45;3.17;;;;;;;-8.81;61.13;101698.32;1825008;77;20931;-75
2021/12/23 02:55:42;;;;;;;6.75;4.17;;;;;;;-8.84;61.23;101700.77;1824734;78;21077;-74
2021/12/23 02:58:09;;;;;;;9.38;5.50;;;;;;;-8.84;61.11;101708.39;1825055;77;20931;-74
2021/12/23 03:00:38;;;;;;;3.40;3.10;;;;;;;-8.86;61.16;101704.52;1824838;78;20872;-75
2021/12/23 03:03:05;;;;;;;9.18;4.45;;;;;;;-8.83;61.11;101707.56;1825109;77;21137;-76
2021/12/23 03:05:32;;;;;;;5.30;3.85;;;;;;;-8.87;61.02;101711.69;1824776;77;20962;-76
2021/12/23 03:08:00;;;;;;;3.72;3.42;;;;;;;-8.89;61.24;101703.14;1825064;77;20985;-76
2021/12/23 03:10:27;;;;;;;4.62;3.72;;;;;;;-8.88;61.28;101706.12;1824543;78;20963;-74
2021/12/23 03:12:54;;;;;;;11.28;4.62;;;;;;;-8.86;61.31;101708.32;1824753;78;20891;-76
2021/12/23 03:15:21;;;;;;;7.47;4.90;;;;;;;-8.79;61.47;101710.27;1824761;77;21488;-73
2021/12/23 03:17:48;;;;;;;4.87;3.60;;;;;;;-8.68;61.37;101714.48;1825003;77;21010;-74
2021/12/23 03:20:16;;;;;;;4.83;3.35;;;;;;;-8.60;61.13;101709.69;1825195;78;20903;-75
2021/12/23 03:22:44;;;;;;;5.45;3.37;;;;;;;-8.59;60.93;101721.16;1825079;78;20969;-76
2021/12/23 03:25:11;;;;;;;2.92;2.60;;;;;;;-8.63;60.96;101716.77;1825956;77;20970;-76
2021/12/23 03:27:38;;;;;;;4.95;3.85;;;;;;;-8.61;61.05;101721.51;1825337;77;21131;-76
2021/12/23 03:30:06;;;;;;;4.08;3.55;;;;;;;-8.57;61.00;101725.04;1824987;77;20927;-76
2021/12/23 03:32:33;;;;;;;4.92;2.83;;;;;;;-8.57;60.86;101726.31;1825146;78;21424;-76
2021/12/23 03:35:00;;;;;;;4.10;2.90;;;;;;;-8.61;60.89;101724.05;1824025;77;20919;-76
2021/12/23 03:37:29;;;;;;;2.75;2.52;;;;;;;-8.70;61.00;101723.72;1821534;78;20872;-77
2021/12/23 03:39:56;;;;;;;3.22;2.83;;;;;;;-8.78;61.17;101723.84;1821878;78;21094;-75
2021/12/23 03:42:24;;;;;;;3.92;3.52;;;;;;;-8.85;61.38;101725.70;1821475;78;20974;-75
2021/12/23 03:44:51;;;;;;;4.25;2.60;;;;;;;-8.95;61.69;101729.59;1821743;78;20916;-76
2021/12/23 03:47:18;;;;;;;5.20;2.85;;;;;;;-9.04;61.98;101737.73;1821458;78;20970;-75
2021/12/23 03:49:45;;;;;;;3.17;2.85;;;;;;;-9.13;62.31;101739.06;1821693;78;20951;-75
2021/12/23 03:52:12;;;;;;;4.22;3.35;;;;;;;-9.19;62.69;101738.00;1821402;78;21137;-74
2021/12/23 03:54:39;;;;;;;6.17;3.87;;;;;;;-9.23;62.81;101734.87;1821542;78;20975;-75
2021/12/23 03:57:07;;;;;;;5.45;4.85;;;;;;;-9.26;63.02;101736.45;1821493;78;20875;-75
2021/12/23 03:59:34;;;;;;;5.90;4.10;;;;;;;-9.26;63.18;101734.77;1821725;78;21436;-75
2021/12/23 04:02:01;;;;;;;6.30;3.87;;;;;;;-9.23;63.37;101735.28;1821546;78;20983;-76
2021/12/23 04:04:27;;;;;;;7.67;4.10;;;;;;;-9.25;63.37;101733.98;1821801;78;21108;-74
2021/12/23 04:06:55;;;;;;;8.08;4.67;;;;;;;-9.26;63.51;101738.58;1821421;78;20891;-73
2021/12/23 04:09:22;;;;;;;5.55;3.02;;;;;;;-9.29;63.65;101738.47;1821348;78;20909;-76
2021/12/23 04:11:49;;;;;;;5.42;2.95;;;;;;;-9.30;63.88;101750.69;1821438;78;20943;-75
2021/12/23 04:14:16;;;;;;;5.33;3.45;;;;;;;-9.21;64.22;101751.45;1821380;78;21475;-75
2021/12/23 04:16:43;;;;;;;4.05;3.25;;;;;;;-9.10;64.11;101755.27;1821391;78;21145;-75
2021/12/23 04:19:11;;;;;;;5.00;3.45;;;;;;;-8.99;64.13;101753.15;1821830;78;21363;-77
2021/12/23 04:21:39;;;;;;;5.90;3.42;;;;;;;-8.93;63.96;101754.66;1821501;78;20930;-76
2021/12/23 04:24:06;;;;;;;6.40;3.12;;;;;;;-8.92;63.64;101747.89;1821778;78;20943;-75
2021/12/23 04:26:33;;;;;;;6.05;3.80;;;;;;;-8.91;63.89;101753.42;1821606;78;20935;-76
2021/12/23 04:29:00;;;;;;;4.95;3.67;;;;;;;-8.91;63.69;101751.77;1816478;78;21049;-76
2021/12/23 04:31:27;;;;;;;7.72;3.40;;;;;;;-9.00;63.96;101751.43;1822199;78;21393;-77
2021/12/23 04:33:54;;;;;;;6.62;3.35;;;;;;;-9.06;64.03;101755.00;1821686;78;20939;-78
2021/12/23 04:36:23;;;;;;;8.83;4.67;;;;;;;-9.09;64.24;101748.51;1821591;78;21728;-76
2021/12/23 04:38:50;;;;;;;5.90;3.72;;;;;;;-9.09;64.30;101757.02;1821566;78;20915;-76
2021/12/23 04:41:17;;;;;;;8.20;6.08;;;;;;;-9.06;64.54;101753.73;1821518;78;21196;-74
2021/12/23 04:43:44;;;;;;;5.45;4.42;;;;;;;-9.04;64.50;101760.59;1821296;78;21444;-74
2021/12/23 04:46:11;;;;;;;4.53;3.33;;;;;;;-9.04;64.75;101758.47;1821447;78;20967;-75
2021/12/23 04:48:38;;;;;;;9.50;4.62;;;;;;;-9.02;64.62;101763.20;1821433;78;20852;-75
2021/12/23 04:51:07;;;;;;;5.97;4.33;;;;;;;-9.07;64.58;101774.47;1822154;78;20876;-77
2021/12/23 04:53:38;;;;;;;5.60;3.12;;;;;;;-9.05;64.82;101777.91;1824023;77;21969;-75
2021/12/23 04:56:07;;;;;;;8.68;4.42;;;;;;;-9.03;64.72;101785.19;1823986;78;20954;-75
2021/12/23 04:58:34;;;;;;;10.90;6.05;;;;;;;-9.06;64.76;101784.22;1821849;78;20922;-75
2021/12/23 05:01:02;;;;;;;4.35;3.42;;;;;;;-9.05;64.88;101788.06;1821928;78;20883;-75
2021/12/23 05:03:30;;;;;;;5.55;3.90;;;;;;;-9.04;64.80;101786.41;1821644;78;20926;-76
2021/12/23 05:05:58;;;;;;;5.22;3.90;;;;;;;-9.05;64.78;101780.44;1821732;78;21061;-77
2021/12/23 05:08:26;;;;;;;4.45;3.37;;;;;;;-9.03;64.62;101790.27;1821437;78;20923;-76
2021/12/23 05:10:54;;;;;;;7.70;4.97;;;;;;;-9.10;64.58;101787.44;1821893;78;21361;-75
2021/12/23 05:13:20;;;;;;;4.92;3.83;;;;;;;-9.20;64.66;101783.69;1821411;78;20888;-75
2021/12/23 05:15:48;;;;;;;5.17;3.42;;;;;;;-9.24;64.85;101798.34;1821478;78;21036;-76
2021/12/23 05:18:15;;;;;;;6.97;4.90;;;;;;;-9.26;65.04;101789.78;1821378;78;21156;-76
2021/12/23 05:20:42;;;;;;;6.97;4.47;;;;;;;-9.26;65.10;101804.61;1822685;78;20966;-76
2021/12/23 05:23:09;;;;;;;6.12;3.87;;;;;;;-9.25;65.09;101800.02;1824664;77;20856;-81
2021/12/23 05:25:36;;;;;;;5.92;4.20;;;;;;;-9.23;64.96;101805.13;1824707;78;20998;-87
2021/12/23 05:28:03;;;;;;;4.87;3.37;;;;;;;-9.27;64.69;101807.98;1823940;77;20923;-87
2021/12/23 05:30:33;;;;;;;6.60;4.47;;;;;;;-9.30;64.69;101806.97;1821776;78;21330;-85
2021/12/23 05:32:59;;;;;;;5.78;4.35;;;;;;;-9.35;64.69;101813.14;1821646;78;20915;-87
2021/12/23 05:35:26;;;;;;;8.55;4.33;;;;;;;-9.40;64.69;101813.37;1822184;78;21084;-87
2021/12/23 05:37:53;;;;;;;7.58;4.00;;;;;;;-9.39;64.84;101825.24;1825381;78;20840;-86
2021/12/23 05:40:23;;;;;;;4.90;3.42;;;;;;;-9.41;64.79;101826.44;1825939;78;20871;-90
2021/12/23 05:42:50;;;;;;;4.37;3.60;;;;;;;-9.42;64.54;101829.80;1825640;78;21409;-92
2021/12/23 05:45:19;;;;;;;6.62;4.00;;;;;;;-9.47;64.77;101838.02;1823993;78;20883;-89
2021/12/23 05:47:47;;;;;;;6.05;4.47;;;;;;;-9.46;64.76;101832.16;1825437;78;20906;-86
2021/12/23 05:50:14;;;;;;;5.92;4.45;;;;;;;-9.52;64.63;101834.02;1825208;78;20919;-87
2021/12/23 05:52:42;;;;;;;6.65;3.83;;;;;;;-9.52;64.90;101836.56;1825484;78;21049;-92
2021/12/23 05:55:12;;;;;;;4.50;3.60;;;;;;;-9.52;64.74;101841.64;1825754;78;21779;-95
2021/12/23 05:57:40;;;;;;;5.70;3.83;;;;;;;-9.56;65.06;101837.64;1798150;78;20911;-90
2021/12/23 06:00:13;;;;;;;6.80;4.50;;;;;;;-9.52;65.16;101839.52;1825828;78;20989;-91
2021/12/23 06:02:40;;;;;;;3.92;3.45;;;;;;;-9.52;65.18;101854.74;1825527;78;20864;-85
2021/12/23 06:05:10;;;;;;;7.83;4.65;;;;;;;-9.50;65.22;101859.08;1824954;78;20915;-87
2021/12/23 06:07:39;;;;;;;5.85;4.47;;;;;;;-9.46;65.37;101854.59;1825474;78;21147;-90
2021/12/23 06:10:07;;;;;;;4.30;3.87;;;;;;;-9.36;65.21;101861.32;1825870;78;20915;-89
2021/12/23 06:12:35;;;;;;;7.65;4.08;;;;;;;-9.29;65.24;101859.11;1825316;78;21404;-91
2021/12/23 06:15:03;;;;;;;6.45;4.28;;;;;;;-9.20;65.10;101864.56;1825865;78;21049;-86
2021/12/23 06:17:30;;;;;;;16.32;14.63;;;;;;;-9.18;65.03;101869.72;1825327;78;20979;-93
2021/12/23 06:19:57;;;;;;;8.58;5.22;;;;;;;-9.10;64.87;101876.36;1826398;78;21112;-89
2021/12/23 06:22:27;;;;;;;11.38;5.25;;;;;;;-9.05;64.64;101879.53;1826054;78;20966;-93
2021/12/23 06:24:54;;;;;;;7.05;4.83;;;;;;;-8.99;64.36;101879.79;1826001;78;20903;-91
2021/12/23 06:27:21;;;;;;;6.85;5.10;;;;;;;-8.94;64.07;101875.30;1826447;78;20931;-89
2021/12/23 06:29:50;;;;;;;7.60;3.98;;;;;;;-8.89;64.09;101885.23;1827773;78;20986;-91
2021/12/23 06:32:17;;;;;;;4.65;3.35;;;;;;;-8.83;63.75;101885.48;1827980;78;21206;-93
2021/12/23 06:34:45;;;;;;;5.47;3.83;;;;;;;-8.83;63.49;101885.07;1828660;77;20975;-91
2021/12/23 06:37:13;;;;;;;6.92;4.53;;;;;;;-8.82;63.17;101891.91;1824302;77;21081;-91
2021/12/23 06:39:40;;;;;;;5.15;3.42;;;;;;;-8.86;63.01;101886.64;1824949;78;20832;-92
2021/12/23 06:42:08;;;;;;;5.30;3.65;;;;;;;-8.89;63.06;101892.48;1825044;77;20939;-92
2021/12/23 06:44:35;;;;;;;7.60;4.70;;;;;;;-8.88;62.94;101893.34;1825078;77;21099;-91
2021/12/23 06:47:03;;;;;;;5.75;4.33;;;;;;;-8.90;62.89;101893.27;1825018;77;21143;-91
2021/12/23 06:49:31;;;;;;;5.58;3.77;;;;;;;-8.90;62.97;101891.14;1824786;78;20808;-92
2021/12/23 06:51:59;;;;;;;4.95;3.67;;;;;;;-8.89;62.65;101887.77;1824908;78;21222;-91
2021/12/23 06:54:26;;;;;;;6.30;4.28;;;;;;;-8.93;62.79;101894.43;1825152;77;20942;-91
2021/12/23 06:56:53;;;;;;;7.58;4.78;;;;;;;-8.89;62.82;101895.02;1824934;78;21104;-89
2021/12/23 06:59:20;;;;;;;6.55;4.53;;;;;;;-8.81;62.91;101892.36;1823638;78;21369;-90
2021/12/23 07:01:48;;;;;;;5.60;4.12;;;;;;;-8.68;62.46;101895.39;1822328;78;20915;-91
2021/12/23 07:04:23;;;;;;;5.22;3.75;;;;;;;-8.66;62.33;101889.97;1822288;78;20966;-89
2021/12/23 07:06:48;;;;;;;6.50;3.98;;;;;;;-8.63;62.21;101891.34;1820799;78;20954;-90
2021/12/23 07:09:15;;;;;;;5.85;4.30;;;;;;;-8.60;62.16;101882.17;1822342;78;21800;-90
2021/12/23 07:11:42;;;;;;;4.85;3.67;;;;;;;-8.51;61.98;101886.75;1822037;78;20978;-90
2021/12/23 07:14:09;;;;;;;4.30;3.47;;;;;;;-8.50;61.53;101891.42;1822540;78;21357;-89
2021/12/23 07:16:39;;;;;;;4.78;4.28;;;;;;;-8.49;61.60;101890.22;1822036;78;20967;-89
2021/12/23 07:19:06;;;;;;;5.45;3.87;;;;;;;-8.47;61.62;101887.72;1822520;78;20907;-88
2021/12/23 07:21:33;;;;;;;5.72;4.78;;;;;;;-8.49;61.38;101891.49;1822003;78;21795;-89
2021/12/23 07:24:00;;;;;;;4.80;4.17;;;;;;;-8.51;61.36;101893.11;1823040;78;20844;-94
2021/12/23 07:26:28;;;;;;;6.45;4.47;;;;;;;-8.56;61.33;101899.29;1823463;78;20883;-90
2021/12/23 07:28:55;;;;;;;6.53;3.70;;;;;;;-8.54;61.45;101901.88;1823352;78;20939;-92
2021/12/23 07:31:21;;;;;;;5.17;3.65;;;;;;;-8.50;61.45;101894.83;1822917;78;21456;-90
2021/12/23 07:33:53;;;;;;;5.12;3.42;;;;;;;-8.43;61.27;101899.74;1822572;78;21104;-91
2021/12/23 07:36:22;;;;;;;4.40;3.55;;;;;;;-8.44;60.90;101909.06;1822140;78;21425;-90
2021/12/23 07:38:49;;;;;;;5.15;3.75;;;;;;;-8.45;61.16;101906.45;1825911;78;20994;-89
2021/12/23 07:41:17;;;;;;;3.62;2.95;;;;;;;-8.37;60.90;101909.72;1825549;78;20939;-88
2021/12/23 07:43:56;;;;;;;6.08;4.12;;;;;;;-8.34;60.76;101908.95;1825473;78;20974;-85
2021/12/23 07:46:13;;;;;;;5.20;3.33;;;;;;;-8.31;60.58;101914.56;1826026;78;21404;-87
2021/12/23 07:48:40;;;;;;;6.08;3.50;;;;;;;-8.22;60.71;101905.63;1826418;78;20880;-86
2021/12/23 07:51:07;;;;;;;6.33;4.17;;;;;;;-8.11;60.45;101904.75;1826624;77;20919;-85
2021/12/23 07:53:33;;;;;;;6.78;4.00;;;;;;;-8.04;60.05;101907.11;1828033;77;20978;-86
2021/12/23 07:56:01;;;;;;;7.53;4.40;;;;;;;-8.00;59.84;101905.16;1827811;78;20911;-83
2021/12/23 07:58:27;;;;;;;7.12;3.95;;;;;;;-7.99;59.68;101903.05;1826142;78;21129;-88
2021/12/23 08:00:54;;;;;;;6.92;4.28;;;;;;;-7.99;59.67;101907.73;1826056;78;20911;-88
2021/12/23 08:03:21;;;;;;;8.95;3.87;;;;;;;-7.94;59.49;101910.44;1825731;78;20895;-89
2021/12/23 08:05:49;;;;;;;7.08;4.15;;;;;;;-7.92;59.46;101908.82;1826226;78;20895;-88
2021/12/23 08:08:16;;;;;;;6.17;4.05;;;;;;;-7.88;58.60;101904.30;1827056;78;21049;-87
2021/12/23 08:10:44;;;;;;;9.50;4.80;;;;;;;-7.97;58.74;101912.88;1828415;78;21939;-86
2021/12/23 08:13:13;;;;;;;5.03;3.42;;;;;;;-7.97;58.69;101915.02;1827994;78;21446;-85
2021/12/23 08:15:40;;;;;;;5.97;3.75;;;;;;;-7.89;58.73;101916.59;1827449;78;20967;-88
2021/12/23 08:18:07;;;;;;;6.62;3.72;;;;;;;-7.82;58.12;101922.77;1827127;78;20923;-90
2021/12/23 08:20:36;;;;;;;4.47;4.08;;;;;;;-7.78;58.16;101917.84;1825827;78;21387;-91
2021/12/23 08:23:04;;;;;;;5.60;4.30;;;;;;;-7.69;57.95;101915.14;1826180;78;21286;-90
2021/12/23 08:25:31;;;;;;;6.85;4.95;;;;;;;-7.63;57.44;101917.91;1827961;78;20916;-90
2021/12/23 08:27:59;;;;;;;5.65;3.65;;;;;;;-7.59;57.32;101907.88;1828460;78;20990;-87
2021/12/23 08:30:26;;;;;;;4.40;3.50;;;;;;;-7.48;57.20;101900.62;1819270;78;20979;-92
2021/12/23 08:32:53;;;;;;;4.08;3.17;;;;;;;-7.43;56.39;101908.41;1818064;79;21045;-89
2021/12/23 08:35:20;;;;;;;6.42;3.62;;;;;;;-7.47;56.44;101911.25;1818822;78;21155;-89
2021/12/23 08:37:48;;;;;;;4.45;3.40;;;;;;;-7.43;56.39;101910.96;1817937;77;20986;-86
2021/12/23 08:40:19;;;;;;;6.33;3.92;;;;;;;-7.35;56.68;101912.96;1817617;78;20908;-89
2021/12/23 08:42:47;;;;;;;4.67;4.15;;;;;;;-7.24;56.65;101903.55;1817177;77;20963;-92
2021/12/23 08:45:15;;;;;;;5.28;3.35;;;;;;;-7.15;56.87;101901.30;1815805;79;20856;-92
2021/12/23 08:47:42;;;;;;;5.65;3.58;;;;;;;-7.06;57.10;101902.02;1816294;79;21093;-87
2021/12/23 08:50:10;;;;;;;6.33;4.03;;;;;;;-6.97;56.47;101904.86;1815565;79;20876;-88
2021/12/23 08:52:37;;;;;;;5.58;3.98;;;;;;;-6.93;56.64;101907.55;1815081;78;21366;-76
2021/12/23 08:55:05;;;;;;;6.42;4.28;;;;;;;-6.81;56.32;101904.52;1814625;79;20927;-77
2021/12/23 08:57:33;;;;;;;7.40;4.67;;;;;;;-6.73;55.81;101905.64;1814919;79;20928;-81
2021/12/23 09:00:00;;;;;;;4.05;3.52;;;;;;;-6.72;55.38;101906.50;1814977;78;21112;-78
2021/12/23 09:02:27;;;;;;;4.70;2.90;;;;;;;-6.70;55.55;101906.14;1814905;79;20977;-79
2021/12/23 09:04:54;;;;;;;4.67;3.90;;;;;;;-6.64;55.42;101900.38;1814645;79;21460;-80
2021/12/23 09:07:20;;;;;;;5.75;3.87;;;;;;;-6.59;55.10;101900.11;1814429;79;20896;-78
2021/12/23 09:09:50;;;;;;;5.65;3.98;;;;;;;-6.57;54.67;101901.02;1814973;79;20837;-76
2021/12/23 09:12:18;;;;;;;4.17;3.25;;;;;;;-6.58;54.28;101905.27;1814512;79;21169;-79
2021/12/23 09:14:45;;;;;;;4.97;3.02;;;;;;;-6.60;53.78;101902.18;1815138;79;21330;-77
2021/12/23 09:17:12;;;;;;;5.45;3.60;;;;;;;-6.60;53.67;101897.08;1815933;79;20963;-79
2021/12/23 09:19:40;;;;;;;4.47;3.40;;;;;;;-6.53;53.76;101896.47;1815996;78;20903;-78
2021/12/23 09:22:08;;;;;;;4.37;3.50;;;;;;;-6.41;53.46;101889.59;1815941;79;21350;-80
2021/12/23 09:24:57;;;;;;;4.62;3.47;;;;;;;-6.23;52.82;101881.19;1816446;79;21136;-80
2021/12/23 09:32:52;;;;;;;4.20;3.02;;;;;;;-6.06;51.25;101888.07;1818143;78;20931;-79
2021/12/23 09:35:11;;;;;;;4.58;2.80;;;;;;;-6.19;51.35;101882.16;1816208;78;20912;-78
2021/12/23 09:37:38;;;;;;;4.80;3.27;;;;;;;-6.33;51.08;101886.86;1821012;77;21105;-78
2021/12/23 09:40:07;;;;;;;5.53;2.77;;;;;;;-6.45;51.22;101880.96;1824176;78;20947;-78
2021/12/23 09:42:34;;;;;;;5.33;3.10;;;;;;;-6.44;51.80;101881.86;1824139;78;20904;-76
2021/12/23 09:45:06;;;;;;;5.12;3.65;;;;;;;-6.39;52.17;101884.98;1824048;78;20915;-78
2021/12/23 09:47:34;;;;;;;4.67;3.52;;;;;;;-6.26;52.26;101886.22;1823755;78;20958;-79
2021/12/23 09:50:05;;;;;;;6.50;3.40;;;;;;;-6.05;51.70;101887.23;1823506;78;21127;-79
2021/12/23 09:52:34;;;;;;;5.00;3.65;;;;;;;-5.96;51.22;101886.21;1824337;78;20888;-77
2021/12/23 09:55:03;;;;;;;6.92;4.35;;;;;;;-5.91;51.13;101881.23;1823950;78;20868;-76
2021/12/23 09:57:30;;;;;;;7.72;3.55;;;;;;;-5.78;51.33;101878.58;1823412;78;20869;-77
2021/12/23 09:59:58;;;;;;;6.75;3.85;;;;;;;-5.67;51.22;101877.17;1823335;78;20868;-76
2021/12/23 10:02:25;;;;;;;6.55;3.50;;;;;;;-5.55;51.11;101873.69;1822251;78;21443;-77
2021/12/23 10:04:53;;;;;;;6.05;3.62;;;;;;;-5.50;50.44;101877.64;1823538;78;20915;-78
2021/12/23 10:07:21;;;;;;;4.45;3.60;;;;;;;-5.56;49.58;101877.47;1823666;78;20887;-79
2021/12/23 10:10:12;;;;;;;4.28;3.70;;;;;;;-5.81;49.57;101870.42;1823611;78;20876;-78
2021/12/23 10:32:14;;;;;;;8.65;6.30;;;;;;;-5.79;50.53;101860.26;1820535;78;20955;-77
2021/12/23 10:39:51;;;;;;;7.08;4.72;;;;;;;-6.06;50.28;101857.43;1812223;79;20865;-78
2021/12/23 10:42:25;;;;;;;2.92;2.62;;;;;;;-6.21;50.40;101861.68;1812910;78;21739;-78
2021/12/23 10:44:58;;;;;;;3.60;2.87;;;;;;;-6.33;50.42;101851.13;1814418;79;20888;-77
2021/12/23 10:52:32;;;;;;;8.63;4.67;;;;;;;-6.61;51.22;101846.89;1798657;79;22577;-77
2021/12/23 11:00:33;;;;;;;7.35;3.55;;;;;;;-6.52;50.90;101844.19;1758408;80;28522;-79
2021/12/23 11:06:09;;;;;;;4.78;3.05;;;;;;;-6.54;51.39;101848.80;1757212;81;21628;-77
2021/12/23 11:32:10;;;;;;;5.37;3.52;;;;;;;-6.36;52.18;101852.30;1725117;83;20927;-77
2021/12/23 11:36:32;;;;;;;5.80;3.05;;;;;;;-6.52;52.08;101845.47;1724953;83;20920;-78
2021/12/23 11:43:58;;;;;;;5.12;3.05;;;;;;;-6.50;52.19;101837.45;1724738;83;20872;-78
2021/12/23 11:46:38;;;;;;;8.48;5.10;;;;;;;-6.48;52.56;101840.92;1724961;81;20899;-75
2021/12/23 11:49:07;;;;;;;4.08;3.20;;;;;;;-6.40;52.79;101838.61;1724696;81;20950;-76
2021/12/23 11:54:11;;;;;;;8.33;4.17;;;;;;;-6.30;52.73;101846.11;1709341;84;20874;-76
2021/12/23 11:56:46;;;;;;;7.70;4.55;;;;;;;-6.30;53.02;101844.83;1709354;82;21064;-76
2021/12/23 11:59:14;;;;;;;5.70;3.98;;;;;;;-6.37;53.32;101859.52;1708368;83;20927;-76
2021/12/23 12:01:45;;;;;;;7.05;4.20;;;;;;;-6.37;53.62;101851.86;1709120;84;20932;-76
2021/12/23 12:04:15;;;;;;;7.05;3.80;;;;;;;-6.28;53.49;101847.88;1708917;84;21815;-74
2021/12/23 12:06:46;;;;;;;6.00;3.92;;;;;;;-6.21;53.34;101842.53;1733370;82;20924;-76
2021/12/23 12:09:22;;;;;;;6.40;3.40;;;;;;;-6.19;52.72;101847.28;1744668;81;20976;-74
2021/12/23 12:12:01;;;;;;;4.28;3.62;;;;;;;-6.24;52.52;101858.20;1744472;82;21424;-75
2021/12/23 12:14:41;;;;;;;5.35;4.33;;;;;;;-6.35;52.23;101854.91;1744387;82;20921;-77
2021/12/23 12:17:33;;;;;;;5.97;3.40;;;;;;;-6.44;52.38;101857.61;1744760;81;20885;-75
2021/12/23 12:20:24;;;;;;;15.58;5.30;;;;;;;-6.52;52.41;101857.37;1696375;84;21027;-80
2021/12/23 12:23:14;;;;;;;4.40;3.50;;;;;;;-6.54;52.61;101859.00;1675152;85;20944;-78
2021/12/23 12:25:49;;;;;;;5.80;3.70;;;;;;;-6.55;52.53;101863.25;1646432;86;20984;-77
2021/12/23 12:28:24;;;;;;;10.88;5.10;;;;;;;-6.58;52.38;101864.83;1648660;87;20968;-75
2021/12/23 12:31:01;;;;;;;8.35;4.62;;;;;;;-6.69;52.32;101875.59;1648483;87;21191;-78
2021/12/23 12:33:33;;;;;;;6.03;3.58;;;;;;;-6.77;52.99;101877.03;1648924;87;21453;-78
2021/12/23 12:36:07;;;;;;;7.42;4.22;;;;;;;-6.76;52.71;101884.27;1648629;87;21008;-80
2021/12/23 12:38:51;;;;;;;8.20;5.05;;;;;;;-6.80;53.00;101876.05;1648664;87;20981;-76
2021/12/23 12:41:34;;;;;;;7.07;4.70;;;;;;;-6.70;53.23;101872.98;1648652;87;20889;-76
2021/12/23 12:44:36;;;;;;;10.55;5.97;;;;;;;-6.53;53.24;101865.44;1648733;87;21184;-76
2021/12/23 12:46:56;;;;;;;5.47;4.28;;;;;;;-6.39;53.00;101862.44;1636558;87;20905;-79
2021/12/23 12:49:25;;;;;;;8.35;5.33;;;;;;;-6.24;53.19;101865.85;1647892;87;20924;-75
2021/12/23 12:52:09;;;;;;;9.20;4.28;;;;;;;-6.10;52.53;101867.95;1648829;87;20937;-77
2021/12/23 12:54:52;;;;;;;7.22;4.58;;;;;;;-6.10;52.53;101867.95;1638327;87;21024;-78
2021/12/23 12:57:21;;;;;;;3.98;3.58;;;;;;;-5.95;52.42;101866.25;1648322;87;21252;-76
2021/12/23 12:59:49;;;;;;;5.40;3.83;;;;;;;-5.76;52.23;101871.83;1689466;84;20941;-78